Hub


Voltar

 INFORMAÇÕES METEOROLÓGICAS

METAR FOR GCTS


ADDS - METARS form results

(1252 UTC 26 April 2019)
Data provider http://aviationweather.gov/metar/data/
 
METAR text: GCTS 261230Z 08023KT 9999 FEW025 23/11 Q1021 NOSIG
Conditions at: GCTS (TENERIFE SUR/REI, ES) observed 1230 UTC 26 April 2019
Temperature: 23.0°C (73°F)
Dewpoint: 11.0°C (52°F) [RH = 47%]
Pressure (altimeter): 30.15 inches Hg (1021.0 mb)
Winds: from the E (80 degrees) at 26 MPH (23 knots; 11.8 m/s)
Visibility: 6 or more miles (10+ km)
Ceiling: at least 12,000 feet AGL
Clouds: few clouds at 2500 feet AGL
Weather: no significant weather observed at this time

METAR text: GCTS 261200Z 09024KT 9999 FEW025 22/11 Q1022 NOSIG
Conditions at: GCTS (TENERIFE SUR/REI, ES) observed 1200 UTC 26 April 2019
Temperature: 22.0°C (72°F)
Dewpoint: 11.0°C (52°F) [RH = 50%]
Pressure (altimeter): 30.18 inches Hg (1022.0 mb)
Winds: from the E (90 degrees) at 28 MPH (24 knots; 12.3 m/s)
Visibility: 6 or more miles (10+ km)
Ceiling: at least 12,000 feet AGL
Clouds: few clouds at 2500 feet AGL
Weather: no significant weather observed at this time

Forecast for: GCTS (TENERIFE SUR/REI, ES)
Text: TAF GCTS 260800Z 2609/2709 06012KT 9999 FEW030 TX24/2614Z TN16/2705Z
Forecast period: 0900 UTC 26 April 2019 to 0900 UTC 27 April 2019
Forecast type: FROM: standard forecast or significant change
Winds: from the ENE (60 degrees) at 14 MPH (12 knots; 6.2 m/s)
Visibility: 6 or more miles 10+ km)
Ceiling: at least 12,000 feet AGL
Clouds: few clouds at 3000 feet AGL
Weather: no significant weather forecast for this period
Text: BECMG 2609/2611 08022KT
Forecast period: 0900 UTC 26 April 2019 to 0900 UTC 27 April 2019
Forecast type: BECOMING: Conditions expected to become as follows by 1100 UTC 26 April 2019
Winds: from the E (80 degrees) at 25 MPH (22 knots; 11.3 m/s)
Visibility: 6 or more miles 10+ km)
Ceiling: at least 12,000 feet AGL
Clouds: few clouds at 3000 feet AGL
Weather: no significant weather forecast for this period
Text: PROB30
Forecast period: 1200 to 2000 UTC 26 April 2019
Forecast type: TEMPORARY: The following changes expected for less than half the time period
Winds: from the E (90 degrees) at 25 MPH (22 knots; 11.3 m/s)
gusting to 37 MPH (32 knots; 16.5 m/s)
Visibility: missing
Ceiling: unknown
Clouds: missing
Weather: no significant weather forecast for this period


 MAPA DO AEROPORTO


 INFORMAÇÕES DA PISTA

Pista 08 Tamanho da pista 10499 ft Largura da pista 148 ft
Elevação da pista 187 ft Ranhura da pista 0 ft Proa da pista 69
Pista 26 Tamanho da pista 10499 ft Largura da pista 148 ft
Elevação da pista 209 ft Ranhura da pista 0 ft Proa da pista 249

 FREQUÊNCIAS DO AEROPORTO

Tipo APP Nome APP Frequência 120.3 MHZ
Tipo ATIS Nome ATIS Frequência 118.675 MHZ
Tipo GND Nome GND Frequência 121.9 MHZ
Tipo TWR Nome TWR Frequência 119 MHZ

 AUXÍLIOS DE NAVEGAÇÃO PRÓXIMOS AO AEROPORTO

Tipo NDB Nome Tenerife Sur Frequência 317 KHZ
Tipo VOR-DME Nome Tenerife Sur Frequência 116400 KHZ